Tjukalinsk, Russia
Current Conditions -  °F | °C
As of 11:00 AM on Thursday 23 Oct 2014 (Local Time) from UNOO Reporting Station
Rain Showers Rain Showers  
Wind Chill: 28°   Ceiling: 2600
Heat Index: 34°   Visibility: 5mi
Dew Point: 32°   Wind: 7mph
Humidity: 93%   Direction: 150°SSE
Pressure: 29.77"   Gusts: NA
Location:  55.87°N, 72.2°E
Report Text: UNOO 230500Z 15003MPS 8000 -SHRA BKN026CB 01/00 Q1008 25810545NOSIG RMK QFE748
Loading
Personal Weather Stations






























Interactive Weather Map
Tropical Storm Tracking
New forecast layout! Learn more

10-Day Weather Forecast

Advertisements
Track Severe Weather on mobile